createdAt,value
2023-02-14T00:00:35.970Z,11.87
2023-02-14T00:03:04.834Z,11.10
2023-02-14T00:05:34.103Z,10.90
2023-02-14T00:08:05.170Z,10.57
2023-02-14T00:10:36.909Z,9.50
2023-02-14T00:13:05.335Z,10.67
2023-02-14T00:15:32.396Z,11.20
2023-02-14T00:18:03.183Z,10.83
2023-02-14T00:20:30.731Z,11.33
2023-02-14T00:23:00.847Z,10.00
2023-02-14T00:25:30.099Z,11.07
2023-02-14T00:27:59.459Z,11.03
2023-02-14T00:30:27.374Z,11.33
2023-02-14T00:32:55.932Z,12.00
2023-02-14T00:35:23.603Z,12.17
2023-02-14T00:37:51.313Z,10.90
2023-02-14T00:40:22.551Z,11.07
2023-02-14T00:42:50.786Z,10.73
2023-02-14T00:45:20.718Z,10.17
2023-02-14T00:47:48.542Z,10.43
2023-02-14T00:50:15.920Z,10.20
2023-02-14T00:52:43.296Z,10.37
2023-02-14T00:55:12.683Z,10.63
2023-02-14T00:57:43.458Z,11.20
2023-02-14T01:00:15.332Z,9.77
2023-02-14T01:02:44.516Z,10.97
2023-02-14T01:05:14.898Z,10.50
2023-02-14T01:07:42.291Z,11.27
2023-02-14T01:10:14.245Z,10.43
2023-02-14T01:12:44.573Z,10.90
2023-02-14T01:15:14.695Z,9.67
2023-02-14T01:17:43.253Z,10.77
2023-02-14T01:20:14.801Z,10.00
2023-02-14T01:22:44.614Z,10.40
2023-02-14T01:25:12.631Z,10.03
2023-02-14T01:27:40.020Z,9.50
2023-02-14T01:30:11.249Z,10.73
2023-02-14T01:32:39.948Z,10.47
2023-02-14T01:35:07.947Z,9.90
2023-02-14T01:37:39.648Z,9.67
2023-02-14T01:40:09.133Z,10.10
2023-02-14T01:42:38.373Z,10.00
2023-02-14T01:45:10.365Z,9.07
2023-02-14T01:47:42.166Z,9.07
2023-02-14T01:50:12.123Z,10.30
2023-02-14T01:52:48.753Z,10.13
2023-02-14T01:55:20.705Z,10.00
2023-02-14T01:57:50.269Z,9.70
2023-02-14T02:00:49.710Z,9.43
2023-02-14T02:03:18.647Z,9.40
2023-02-14T02:05:49.123Z,9.20
2023-02-14T02:08:22.348Z,10.03
2023-02-14T02:10:50.261Z,9.70
2023-02-14T02:13:22.245Z,10.30
2023-02-14T02:15:53.574Z,9.57
2023-02-14T02:18:27.289Z,9.10
2023-02-14T02:21:06.000Z,8.73
2023-02-14T02:23:47.545Z,8.67
2023-02-14T02:26:30.828Z,9.33
2023-02-14T02:29:24.076Z,9.47
2023-02-14T02:32:08.856Z,8.13
2023-02-14T02:34:57.456Z,8.50
2023-02-14T02:37:35.294Z,8.33
2023-02-14T02:40:16.791Z,8.53
2023-02-14T02:42:50.034Z,8.77
2023-02-14T02:45:23.679Z,9.53
2023-02-14T02:47:56.366Z,9.47
2023-02-14T02:50:45.637Z,9.80
2023-02-14T02:53:17.847Z,8.73
2023-02-14T02:56:09.673Z,8.23
2023-02-14T02:58:40.763Z,9.50
2023-02-14T03:01:10.156Z,8.33
2023-02-14T03:04:05.102Z,9.70
2023-02-14T03:06:34.580Z,8.90
2023-02-14T03:09:11.910Z,10.03
2023-02-14T03:11:48.537Z,10.40
2023-02-14T03:14:21.225Z,9.33
2023-02-14T03:16:56.954Z,9.07
2023-02-14T03:19:50.942Z,10.10
2023-02-14T03:22:24.245Z,9.67
2023-02-14T03:24:58.140Z,10.17
2023-02-14T03:27:30.348Z,9.23
2023-02-14T03:30:00.886Z,9.70
2023-02-14T03:32:32.371Z,10.37
2023-02-14T03:35:02.326Z,10.17
2023-02-14T03:37:33.698Z,10.23
2023-02-14T03:40:08.425Z,9.30
2023-02-14T03:42:37.838Z,10.40
2023-02-14T03:45:07.943Z,9.37
2023-02-14T03:47:37.669Z,10.13
2023-02-14T03:50:07.077Z,9.13
2023-02-14T03:52:36.266Z,9.57
2023-02-14T03:55:06.386Z,10.07
2023-02-14T03:57:39.734Z,10.57
2023-02-14T04:00:09.118Z,13.83
2023-02-14T04:02:41.119Z,11.23
2023-02-14T04:05:14.185Z,12.50
2023-02-14T04:07:45.734Z,12.73
2023-02-14T04:10:15.385Z,14.07
2023-02-14T04:12:44.525Z,11.73
2023-02-14T04:15:12.536Z,12.43
2023-02-14T04:18:01.506Z,11.80
2023-02-14T04:20:32.762Z,13.10
2023-02-14T04:23:03.235Z,12.43
2023-02-14T04:25:32.188Z,12.90
2023-02-14T04:27:59.799Z,19.87
2023-02-14T04:30:27.487Z,13.07
2023-02-14T04:32:55.264Z,12.93
2023-02-14T04:35:24.746Z,12.47
2023-02-14T04:37:54.659Z,11.73
2023-02-14T04:40:22.610Z,12.80
2023-02-14T04:42:56.031Z,14.17
2023-02-14T04:45:23.790Z,11.90
2023-02-14T04:47:51.624Z,11.87
2023-02-14T04:50:19.371Z,12.10
2023-02-14T04:52:49.398Z,11.40
2023-02-14T04:55:16.774Z,14.10
2023-02-14T04:57:44.575Z,14.50
2023-02-14T05:00:14.968Z,13.67
2023-02-14T05:02:42.573Z,14.03
2023-02-14T05:05:10.180Z,12.00
2023-02-14T05:07:37.889Z,13.50
2023-02-14T05:10:08.204Z,13.73
2023-02-14T05:12:39.506Z,13.03
2023-02-14T05:15:08.884Z,12.80
2023-02-14T05:17:38.250Z,12.50
2023-02-14T05:20:09.273Z,10.53
2023-02-14T05:22:37.081Z,10.93
2023-02-14T05:25:04.712Z,10.60
2023-02-14T05:27:33.402Z,11.03
2023-02-14T05:30:01.285Z,10.47
2023-02-14T05:32:28.943Z,10.97
2023-02-14T05:35:00.966Z,11.00
2023-02-14T05:37:28.918Z,11.23
2023-02-14T05:39:59.065Z,10.53
2023-02-14T05:42:26.835Z,11.30
2023-02-14T05:44:54.641Z,10.60
2023-02-14T05:47:22.389Z,11.17
2023-02-14T05:49:51.037Z,11.37
2023-02-14T05:52:22.230Z,12.17
2023-02-14T05:54:49.923Z,11.53
2023-02-14T05:57:20.063Z,11.53
2023-02-14T05:59:48.987Z,10.43
2023-02-14T06:02:16.677Z,9.00
2023-02-14T06:04:47.646Z,9.90
2023-02-14T06:07:16.195Z,10.27
2023-02-14T06:09:46.023Z,7.63
2023-02-14T06:12:15.723Z,9.37
2023-02-14T06:14:46.223Z,10.03
2023-02-14T06:17:13.808Z,10.27
2023-02-14T06:19:41.674Z,8.93
2023-02-14T06:22:12.480Z,9.97
2023-02-14T06:24:41.026Z,9.30
2023-02-14T06:27:10.441Z,9.37
2023-02-14T06:29:38.370Z,9.70
2023-02-14T06:32:08.357Z,9.23
2023-02-14T06:34:37.257Z,7.43
2023-02-14T06:37:05.728Z,7.30
2023-02-14T06:39:33.313Z,7.57
2023-02-14T06:42:03.383Z,8.20
2023-02-14T06:44:32.316Z,9.27
2023-02-14T06:47:00.183Z,10.67
2023-02-14T06:49:27.778Z,7.57
2023-02-14T06:51:55.185Z,8.10
2023-02-14T06:54:24.134Z,9.13
2023-02-14T06:56:54.782Z,8.83
2023-02-14T06:59:22.665Z,9.53
2023-02-14T07:01:54.849Z,9.33
2023-02-14T07:04:24.222Z,7.53
2023-02-14T07:06:52.441Z,7.57
2023-02-14T07:09:20.835Z,9.40
2023-02-14T07:11:49.000Z,8.10
2023-02-14T07:14:19.327Z,7.43
2023-02-14T07:16:47.497Z,9.63
2023-02-14T07:19:16.918Z,10.17
2023-02-14T07:21:45.760Z,10.43
2023-02-14T07:24:13.402Z,9.20
2023-02-14T07:26:41.315Z,9.53
2023-02-14T07:29:12.790Z,9.60
2023-02-14T07:31:40.675Z,9.50
2023-02-14T07:34:08.333Z,8.43
2023-02-14T07:36:37.898Z,9.00
2023-02-14T07:39:08.507Z,9.27
2023-02-14T07:41:36.254Z,9.27
2023-02-14T07:44:11.668Z,9.93
2023-02-14T07:46:39.899Z,9.23
2023-02-14T07:49:15.505Z,9.37
2023-02-14T07:51:45.911Z,7.90
2023-02-14T07:54:13.414Z,7.90
2023-02-14T07:56:41.321Z,10.43
2023-02-14T07:59:09.330Z,8.77
2023-02-14T08:01:38.536Z,9.07
2023-02-14T08:04:06.171Z,10.47
2023-02-14T08:06:34.052Z,10.33
2023-02-14T08:09:05.512Z,8.83
2023-02-14T08:11:50.626Z,9.30
2023-02-14T08:14:21.059Z,9.70
2023-02-14T08:16:48.829Z,9.73
2023-02-14T08:19:18.251Z,9.83
2023-02-14T08:21:48.912Z,9.43
2023-02-14T08:24:31.358Z,9.53
2023-02-14T08:26:59.543Z,8.30
2023-02-14T08:29:26.997Z,7.73
2023-02-14T08:32:00.666Z,7.30
2023-02-14T08:34:34.710Z,8.07
2023-02-14T08:37:02.064Z,8.63
2023-02-14T08:39:32.980Z,8.00
2023-02-14T08:42:02.609Z,7.43
2023-02-14T08:44:32.150Z,11.27
2023-02-14T08:47:00.913Z,9.50
2023-02-14T08:49:31.613Z,8.27
2023-02-14T08:52:00.144Z,6.90
2023-02-14T08:54:28.103Z,9.00
2023-02-14T08:57:03.304Z,7.60
2023-02-14T08:59:34.897Z,8.23
2023-02-14T09:02:03.033Z,7.63
2023-02-14T09:04:31.363Z,8.07
2023-02-14T09:06:59.009Z,7.93
2023-02-14T09:09:30.314Z,8.83
2023-02-14T09:12:00.580Z,8.83
2023-02-14T09:14:34.785Z,9.73
2023-02-14T09:17:05.545Z,9.63
2023-02-14T09:19:33.944Z,9.30
2023-02-14T09:22:03.781Z,9.10
2023-02-14T09:24:33.342Z,8.83
2023-02-14T09:27:03.557Z,7.47
2023-02-14T09:29:32.017Z,7.43
2023-02-14T09:32:02.006Z,7.50
2023-02-14T09:34:48.251Z,7.63
2023-02-14T09:37:35.026Z,8.40
2023-02-14T09:40:07.667Z,7.53
2023-02-14T09:42:48.733Z,7.37
2023-02-14T09:45:18.484Z,8.33
2023-02-14T09:47:48.730Z,8.13
2023-02-14T09:50:19.606Z,8.27
2023-02-14T09:52:48.305Z,7.80
2023-02-14T09:55:17.313Z,7.57
2023-02-14T09:57:56.092Z,7.77
2023-02-14T10:00:35.478Z,8.87
2023-02-14T10:03:09.676Z,8.43
2023-02-14T10:05:46.058Z,7.90
2023-02-14T10:08:22.832Z,7.40
2023-02-14T10:11:16.084Z,8.53
2023-02-14T10:13:50.317Z,8.40
2023-02-14T10:16:20.158Z,7.87
2023-02-14T10:18:53.188Z,8.50
2023-02-14T10:21:23.942Z,9.27
2023-02-14T10:23:53.830Z,9.13
2023-02-14T10:26:26.063Z,8.73
2023-02-14T10:28:56.535Z,9.07
2023-02-14T10:31:26.557Z,9.67
2023-02-14T10:33:59.375Z,9.33
2023-02-14T10:36:42.127Z,9.60
2023-02-14T10:39:17.724Z,8.43
2023-02-14T10:41:53.185Z,8.80
2023-02-14T10:44:35.046Z,8.97
2023-02-14T10:47:07.112Z,8.83
2023-02-14T10:49:42.278Z,9.10
2023-02-14T10:52:14.625Z,8.27
2023-02-14T10:54:43.453Z,8.00
2023-02-14T10:57:13.878Z,8.67
2023-02-14T10:59:46.898Z,8.33
2023-02-14T11:02:17.013Z,8.43
2023-02-14T11:04:48.058Z,8.77
2023-02-14T11:07:18.811Z,8.33
2023-02-14T11:09:47.054Z,7.90
2023-02-14T11:12:32.869Z,9.27
2023-02-14T11:15:12.438Z,7.93
2023-02-14T11:17:40.096Z,9.23
2023-02-14T11:20:23.592Z,9.50
2023-02-14T11:22:51.819Z,8.77
2023-02-14T11:25:21.372Z,9.33
2023-02-14T11:27:51.174Z,8.43
2023-02-14T11:30:26.728Z,9.23
2023-02-14T11:32:56.499Z,9.23
2023-02-14T11:35:27.573Z,8.80
2023-02-14T11:37:57.764Z,9.37
2023-02-14T11:40:29.094Z,8.43
2023-02-14T11:43:13.505Z,9.03
2023-02-14T11:45:47.393Z,9.20
2023-02-14T11:48:24.992Z,8.90
2023-02-14T11:51:03.056Z,9.37
2023-02-14T11:53:43.981Z,8.87
2023-02-14T11:56:12.610Z,9.03
2023-02-14T11:58:45.082Z,9.23
2023-02-14T12:01:22.410Z,9.30
2023-02-14T12:03:50.504Z,8.57
2023-02-14T12:06:25.900Z,9.07
2023-02-14T12:09:08.276Z,9.13
2023-02-14T12:11:37.999Z,8.80
2023-02-14T12:14:07.744Z,9.17
2023-02-14T12:16:43.612Z,8.60
2023-02-14T12:19:16.187Z,7.57
2023-02-14T12:21:51.500Z,7.13
2023-02-14T12:24:26.742Z,6.70
2023-02-14T12:27:00.219Z,6.87
2023-02-14T12:29:34.219Z,7.13
2023-02-14T12:32:14.708Z,7.10
2023-02-14T12:34:43.744Z,6.33
2023-02-14T12:37:18.212Z,6.23
2023-02-14T12:39:56.607Z,7.07
2023-02-14T12:42:32.840Z,6.90
2023-02-14T12:45:09.288Z,6.53
2023-02-14T12:47:42.973Z,7.03
2023-02-14T12:50:20.994Z,7.83
2023-02-14T12:52:56.933Z,7.43
2023-02-14T12:55:39.314Z,8.20
2023-02-14T12:58:21.576Z,7.60
2023-02-14T13:00:52.886Z,7.87
2023-02-14T13:03:35.297Z,7.63
2023-02-14T13:06:13.164Z,6.90
2023-02-14T13:09:01.179Z,7.73
2023-02-14T13:11:35.809Z,7.53
2023-02-14T13:14:14.495Z,7.83
2023-02-14T13:16:47.758Z,7.93
2023-02-14T13:19:22.967Z,7.27
2023-02-14T13:22:01.435Z,7.63
2023-02-14T13:24:32.099Z,6.90
2023-02-14T13:27:02.496Z,7.77
2023-02-14T13:29:33.190Z,7.80
2023-02-14T13:32:03.203Z,7.90
2023-02-14T13:34:34.754Z,7.40
2023-02-14T13:37:07.877Z,7.70
2023-02-14T13:39:38.687Z,7.13
2023-02-14T13:42:11.272Z,7.23
2023-02-14T13:44:43.987Z,8.80
2023-02-14T13:47:17.768Z,8.93
2023-02-14T13:49:48.495Z,9.90
2023-02-14T13:52:37.823Z,10.33
2023-02-14T13:55:15.562Z,8.13
2023-02-14T13:57:43.258Z,9.07
2023-02-14T14:00:30.252Z,8.87
2023-02-14T14:02:58.209Z,9.17
2023-02-14T14:05:44.292Z,10.67
2023-02-14T14:08:38.969Z,9.83
2023-02-14T14:11:12.058Z,8.87
2023-02-14T14:13:56.818Z,8.77
2023-02-14T14:16:29.846Z,8.73
2023-02-14T14:18:58.320Z,9.20
2023-02-14T14:21:27.134Z,9.13
2023-02-14T14:24:04.468Z,9.30
2023-02-14T14:26:38.767Z,8.33
2023-02-14T14:29:12.121Z,8.23
2023-02-14T14:31:43.946Z,8.20
2023-02-14T14:34:17.726Z,7.77
2023-02-14T14:36:49.619Z,8.13
2023-02-14T14:39:26.259Z,7.90
2023-02-14T14:41:59.544Z,8.73
2023-02-14T14:44:27.218Z,8.83
2023-02-14T14:46:59.614Z,8.90
2023-02-14T14:49:27.988Z,8.37
2023-02-14T14:52:01.207Z,8.17
2023-02-14T14:54:31.979Z,8.23
2023-02-14T14:57:01.812Z,7.53
2023-02-14T14:59:30.637Z,9.00
2023-02-14T15:01:58.625Z,8.50
2023-02-14T15:04:27.236Z,8.20
2023-02-14T15:06:59.771Z,7.60
2023-02-14T15:09:31.807Z,8.13
2023-02-14T15:12:20.336Z,7.13
2023-02-14T15:14:54.402Z,7.50
2023-02-14T15:17:23.563Z,7.70
2023-02-14T15:19:54.060Z,8.50
2023-02-14T15:22:22.909Z,8.43
2023-02-14T15:24:51.944Z,8.30
2023-02-14T15:27:21.941Z,7.70
2023-02-14T15:29:57.010Z,8.07
2023-02-14T15:32:25.465Z,7.93
2023-02-14T15:34:56.260Z,7.30
2023-02-14T15:37:25.264Z,7.60
2023-02-14T15:39:55.697Z,8.43
2023-02-14T15:42:29.271Z,7.67
2023-02-14T15:45:21.236Z,8.13
2023-02-14T15:47:51.593Z,7.40
2023-02-14T15:50:20.839Z,8.20
2023-02-14T15:52:49.388Z,7.77
2023-02-14T15:55:18.600Z,9.13
2023-02-14T15:57:52.380Z,8.73
2023-02-14T16:00:21.599Z,9.00
2023-02-14T16:02:54.201Z,10.40
2023-02-14T16:05:29.808Z,11.87
2023-02-14T16:08:07.256Z,11.83
2023-02-14T16:10:35.797Z,12.73
2023-02-14T16:13:09.826Z,13.30
2023-02-14T16:15:39.750Z,18.77
2023-02-14T16:18:18.440Z,16.80
2023-02-14T16:20:51.193Z,15.73
2023-02-14T16:23:25.764Z,16.80
2023-02-14T16:25:54.982Z,16.73
2023-02-14T16:28:24.181Z,17.97
2023-02-14T16:30:55.311Z,17.57
2023-02-14T16:33:28.277Z,15.93
2023-02-14T16:35:57.298Z,15.33
2023-02-14T16:38:25.811Z,14.37
2023-02-14T16:40:55.747Z,13.30
2023-02-14T16:43:24.475Z,13.43
2023-02-14T16:45:54.210Z,13.60
2023-02-14T16:48:21.767Z,13.03
2023-02-14T16:53:31.198Z,11.90
2023-02-14T16:56:01.754Z,12.70
2023-02-14T16:58:34.931Z,11.97
2023-02-14T17:01:03.135Z,11.97
2023-02-14T17:03:31.608Z,11.83
2023-02-14T17:06:01.393Z,12.63
2023-02-14T17:08:30.378Z,11.70
2023-02-14T17:11:02.239Z,11.97
2023-02-14T17:13:33.546Z,12.73
2023-02-14T17:16:02.021Z,13.43
2023-02-14T17:18:31.841Z,13.97
2023-02-14T17:21:00.891Z,14.77
2023-02-14T17:23:29.600Z,13.70
2023-02-14T17:25:57.171Z,15.20
2023-02-14T17:28:26.833Z,14.07
2023-02-14T17:31:02.673Z,11.67
2023-02-14T17:33:33.837Z,11.53
2023-02-14T17:36:07.373Z,12.57
2023-02-14T17:38:35.930Z,12.93
2023-02-14T17:41:14.322Z,13.77
2023-02-14T17:43:42.006Z,12.83
2023-02-14T17:46:10.947Z,13.40
2023-02-14T17:48:38.793Z,12.87
2023-02-14T17:51:10.120Z,12.53
2023-02-14T17:53:38.206Z,12.00
2023-02-14T17:56:09.182Z,12.57
2023-02-14T17:58:37.306Z,10.67
2023-02-14T18:01:05.773Z,10.57
2023-02-14T18:03:34.847Z,11.57
2023-02-14T18:06:02.900Z,12.13
2023-02-14T18:08:30.728Z,11.93
2023-02-14T18:10:59.680Z,11.53
2023-02-14T18:13:27.844Z,12.50
2023-02-14T18:15:55.545Z,14.60
2023-02-14T18:18:24.564Z,16.00
2023-02-14T18:20:57.515Z,13.40
2023-02-14T18:23:26.140Z,12.30
2023-02-14T18:25:55.704Z,13.17
2023-02-14T18:28:25.920Z,12.53
2023-02-14T18:30:53.647Z,13.00
2023-02-14T18:33:23.719Z,13.57
2023-02-14T18:35:52.019Z,12.53
2023-02-14T18:38:20.980Z,12.43
2023-02-14T18:40:48.731Z,15.13
2023-02-14T18:43:16.111Z,14.83
2023-02-14T18:45:44.066Z,15.50
2023-02-14T18:48:12.590Z,14.87
2023-02-14T18:50:40.179Z,15.97
2023-02-14T18:53:11.987Z,16.67
2023-02-14T18:55:41.448Z,15.63
2023-02-14T18:58:09.048Z,17.77
2023-02-14T19:00:36.928Z,18.30
2023-02-14T19:03:04.689Z,18.57
2023-02-14T19:05:36.092Z,19.60
2023-02-14T19:08:05.643Z,22.20
2023-02-14T19:10:33.992Z,21.10
2023-02-14T19:13:04.079Z,21.40
2023-02-14T19:15:31.617Z,20.67
2023-02-14T19:18:02.429Z,21.90
2023-02-14T19:20:31.296Z,22.50
2023-02-14T19:23:00.881Z,21.93
2023-02-14T19:25:29.451Z,21.63
2023-02-14T19:27:56.888Z,22.33
2023-02-14T19:30:27.720Z,19.83
2023-02-14T19:32:55.223Z,21.80
2023-02-14T19:35:24.191Z,22.73
2023-02-14T19:37:52.968Z,29.10
2023-02-14T19:40:20.451Z,27.03
2023-02-14T19:42:48.844Z,24.87
2023-02-14T19:45:17.042Z,19.90
2023-02-14T19:47:47.578Z,22.03
2023-02-14T19:50:17.870Z,23.60
2023-02-14T19:52:49.073Z,36.63
2023-02-14T19:55:21.203Z,36.87
2023-02-14T19:57:51.416Z,30.50
2023-02-14T20:00:21.642Z,29.77
2023-02-14T20:02:52.013Z,26.63
2023-02-14T20:05:20.111Z,24.57
2023-02-14T20:07:49.273Z,26.07
2023-02-14T20:10:17.008Z,28.23
2023-02-14T20:12:44.896Z,28.53
2023-02-14T20:15:13.550Z,25.20
2023-02-14T20:17:42.354Z,24.70
2023-02-14T20:20:13.635Z,28.07
2023-02-14T20:22:44.643Z,23.83
2023-02-14T20:25:14.510Z,24.33
2023-02-14T20:27:42.409Z,28.90
2023-02-14T20:30:10.256Z,25.77
2023-02-14T20:32:38.389Z,32.67
2023-02-14T20:35:08.998Z,30.17
2023-02-14T20:37:38.068Z,22.63
2023-02-14T20:40:07.040Z,18.70
2023-02-14T20:42:34.757Z,11.90
2023-02-14T20:45:02.124Z,12.33
2023-02-14T20:47:32.823Z,11.73
2023-02-14T20:50:00.852Z,17.83
2023-02-14T20:52:28.326Z,17.53
2023-02-14T20:54:59.653Z,20.10
2023-02-14T20:57:27.218Z,19.83
2023-02-14T20:59:54.856Z,20.77
2023-02-14T21:02:23.031Z,19.70
2023-02-14T21:04:54.210Z,18.77
2023-02-14T21:07:23.036Z,16.60
2023-02-14T21:09:52.052Z,19.83
2023-02-14T21:12:23.396Z,18.73
2023-02-14T21:14:56.986Z,17.73
2023-02-14T21:17:24.690Z,19.20
2023-02-14T21:19:59.111Z,17.63
2023-02-14T21:22:26.675Z,17.67
2023-02-14T21:24:54.347Z,14.47
2023-02-14T21:27:25.531Z,14.60
2023-02-14T21:29:54.028Z,12.83
2023-02-14T21:32:21.691Z,13.70
2023-02-14T21:34:49.527Z,13.97
2023-02-14T21:37:19.998Z,12.73
2023-02-14T21:39:50.516Z,12.60
2023-02-14T21:42:18.733Z,10.73
2023-02-14T21:45:05.611Z,11.90
2023-02-14T21:47:39.716Z,12.50
2023-02-14T21:50:36.788Z,11.37
2023-02-14T21:53:07.511Z,12.60
2023-02-14T21:55:35.434Z,13.07
2023-02-14T21:58:04.511Z,11.60
2023-02-14T22:00:33.452Z,11.90
2023-02-14T22:03:08.919Z,12.40
2023-02-14T22:05:36.866Z,11.17
2023-02-14T22:08:05.235Z,12.63
2023-02-14T22:10:36.575Z,10.57
2023-02-14T22:13:05.284Z,10.20
2023-02-14T22:15:37.717Z,10.03
2023-02-14T22:18:07.532Z,9.53
2023-02-14T22:20:35.369Z,10.77
2023-02-14T22:23:03.243Z,8.53
2023-02-14T22:25:32.460Z,8.40
2023-02-14T22:28:02.171Z,8.90
2023-02-14T22:30:32.033Z,8.03
2023-02-14T22:33:02.575Z,8.23
2023-02-14T22:35:30.071Z,7.53
2023-02-14T22:38:00.061Z,7.93
2023-02-14T22:40:30.244Z,7.30
2023-02-14T22:42:58.038Z,7.80
2023-02-14T22:45:25.587Z,6.53
2023-02-14T22:47:53.180Z,7.87
2023-02-14T22:50:24.915Z,7.50
2023-02-14T22:52:52.580Z,7.20
2023-02-14T22:55:20.138Z,8.57
2023-02-14T22:57:47.487Z,8.20
2023-02-14T23:00:21.532Z,7.93
2023-02-14T23:02:51.356Z,8.00
2023-02-14T23:05:21.469Z,7.53
2023-02-14T23:07:50.271Z,7.60
2023-02-14T23:10:19.099Z,6.83
2023-02-14T23:13:09.513Z,6.87
2023-02-14T23:15:54.828Z,6.63
2023-02-14T23:18:41.248Z,5.87
2023-02-14T23:21:33.100Z,6.30
2023-02-14T23:24:05.675Z,5.93
2023-02-14T23:26:33.065Z,5.70
2023-02-14T23:29:00.669Z,5.83
2023-02-14T23:31:29.402Z,5.97
2023-02-14T23:33:57.138Z,6.90
2023-02-14T23:36:25.069Z,7.03
2023-02-14T23:38:52.671Z,7.00
2023-02-14T23:41:39.106Z,7.03
2023-02-14T23:44:10.310Z,7.33
2023-02-14T23:46:38.646Z,6.83
2023-02-14T23:49:06.649Z,6.83
2023-02-14T23:51:35.895Z,6.43
2023-02-14T23:54:05.344Z,5.90
2023-02-14T23:56:39.128Z,6.13
2023-02-14T23:59:07.095Z,6.13
